Portada
METAR-TAF:

METAR-TAF

Aeropuertos :

Tenerife Sur, España

Aeropuerto de Tenerife Sur

latitud: 28-03N, longitud: 016-34W, altitud: 64 m

Observación

El informe se hizo hace 17 minutos, a las 18:30 UTC
Viento 8 kt del este, variando entre este y sureste
Temperatura 24°C
Humedad 78%
Presión 1022 hPa
Visibilidad 10 km o más
Nubes dispersas a una altura de 2000 ft

METAR: GCTS 171830Z 10008KT 080V140 9999 SCT020 24/20 Q1022 NOSIG

Hora: 19:47 (18:47 UTC)

Pronóstico

El informe se hizo hace 4 horas y 47 minutos, a las 14:00 UTC
Pronóstico válido del 17 a las 15 UTC al 18 a las 15 UTC
Viento 15 kt del este
Visibilidad 10 km o más
Escasas nubes a una altura de 2000 ft
Evolucionando progresivamente
del 18 a las 00 UTC al 18 a las 02 UTC
Viento 7 kt del noreste

TAF: GCTS 171400Z 1715/1815 10015KT 9999 FEW020 TX26/1813Z TN21/1806Z BECMG 1800/1802 04007KT

Observaciones y pronósticos meteorológicos de más de 4000 aeropuertos (mensajes METAR y TAF).

Los puntos amarillos y rojos representan las estaciones disponibles.

Ponga el ratón en el punto deseado para ver el nombre de la estación.

Haga clic para ver las observaciones y los pronósticos meteorológicos.

Para cambiar el mapa : haga clic en los botones verdes con una cruz de color negro para hacer un zoom, en el botón verde con un guión para alejar o en las flechas verdes para mapas adyacentes.


METAR-TAF: